Pacific Princess — ZCDS3 — position and weather

sailwx.info

Track history (hours):
 
Tides and Currents Weather Stations Pressure Air Temp Water Temp Dewpoint Dewpoint Depression Visibility Wind Speed Wind Dir Waves Ship Positions

Pacific Princess (Bermuda)

Last reported at 2014-Jul-24 07:20 UTC. Time now 2014-Jul-25 06:45 UTC.
Position N 54°19' W 131°04'.

Length 180.5 m; beam 25.6 m; draft 6 m.

Type: Passenger vessel. MMSI: 310504000.

Date/timePositionNaut miles runAvg speedWind from/ knotsBaromVisibWave heightAir tempDewpointWater temp
2014-Jul-24 07:20N 54°19' W 131°04'22712.5
2014-Jul-23 13:12N 51°03' W 127°56'913.6
2014-Jul-23 12:33N 50°58' W 127°45'1212.0
2014-Jul-23 11:33N 50°51' W 127°30'1413.1
2014-Jul-23 10:31N 50°45' W 127°10'1513.1
2014-Jul-23 09:21N 50°39' W 126°48'7312.4
2014-Jul-23 03:31N 49°60' W 125°12'1515.4
2014-Jul-23 02:33N 49°50' W 124°56'1717.5
2014-Jul-23 01:33N 49°38' W 124°36'1818.2
2014-Jul-23 00:34N 49°25' W 124°17'1919.4
2014-Jul-22 23:34N 49°22' W 123°47'1919.3
2014-Jul-22 22:33N 49°19' W 123°18'8 7.5
2014-Jul-22 21:33N 49°17' W 123°06'0 0.0
2014-Jul-22 20:33N 49°17' W 123°06'0 0.0
2014-Jul-22 19:33N 49°17' W 123°06'0 0.0
2014-Jul-22 18:31N 49°17' W 123°06'0 0.0
2014-Jul-22 17:31N 49°17' W 123°06'0 0.0
2014-Jul-22 16:32N 49°17' W 123°06'0 0.0
2014-Jul-22 15:31N 49°17' W 123°06'0 0.0
2014-Jul-22 14:32N 49°17' W 123°06'1 0.6
2014-Jul-22 13:34N 49°18' W 123°06'1111.1
2014-Jul-22 12:33N 49°18' W 123°23'1111.1
2014-Jul-22 11:33N 49°19' W 123°40'10 9.9
2014-Jul-22 10:33N 49°21' W 123°55'1010.2
2014-Jul-22 09:33N 49°24' W 124°10'1010.0
2014-Jul-22 08:33N 49°27' W 124°25'10 9.9
2014-Jul-22 07:33N 49°34' W 124°36'1010.3
2014-Jul-22 06:33N 49°42' W 124°47'1010.3
2014-Jul-22 05:33N 49°49' W 124°57'1110.5
2014-Jul-22 04:31N 49°57' W 125°09'1210.6
2014-Jul-22 03:23N 50°07' W 125°20'7112.2
2014-Jul-21 21:32N 50°42' W 126°58'1414.4
2014-Jul-21 20:33N 50°47' W 127°18'414.3
2014-Jul-21 20:18N 50°49' W 127°23'1114.2
2014-Jul-21 19:33N 50°54' W 127°38'1111.5
2014-Jul-21 18:33N 51°01' W 127°52'  
2014-Jul-16 12:27N 50°60' W 127°49'1112.1
2014-Jul-16 11:34N 50°53' W 127°36'1514.1
2014-Jul-16 10:31N 50°47' W 127°15'1414.2
2014-Jul-16 09:32N 50°41' W 126°54'6312.7
2014-Jul-16 04:33N 50°15' W 125°23'1813.7
2014-Jul-16 03:14N 49°59' W 125°12'1116.6
2014-Jul-16 02:33N 49°51' W 124°58'1818.4
2014-Jul-16 01:32N 49°38' W 124°39'1918.9
2014-Jul-16 00:33N 49°25' W 124°18'2019.7
2014-Jul-15 23:33N 49°23' W 123°48'1919.5
2014-Jul-15 22:33N 49°19' W 123°19'8 8.0
2014-Jul-15 21:33N 49°17' W 123°06'0 0.0
2014-Jul-15 20:33N 49°17' W 123°06'0 0.0
2014-Jul-15 19:33N 49°17' W 123°06'0 0.0
2014-Jul-15 18:33N 49°17' W 123°06'0 0.0
2014-Jul-15 17:33N 49°17' W 123°06'0 0.0
2014-Jul-15 16:33N 49°17' W 123°06'0 0.0
2014-Jul-15 15:33N 49°17' W 123°06'0 0.0
2014-Jul-15 14:33N 49°17' W 123°06'1 1.3
2014-Jul-15 13:33N 49°18' W 123°07'1010.4
2014-Jul-15 12:33N 49°19' W 123°23'10 9.9
2014-Jul-15 11:33N 49°20' W 123°39'10 9.9
2014-Jul-15 10:33N 49°21' W 123°54'9 9.2
2014-Jul-15 09:33N 49°23' W 124°07'10 9.4
2014-Jul-15 08:32N 49°27' W 124°21'9 9.5
2014-Jul-15 07:33N 49°32' W 124°33'10 9.2
2014-Jul-15 06:31N 49°39' W 124°43'8 8.6
2014-Jul-15 05:33N 49°45' W 124°51'9 9.0
2014-Jul-15 04:33N 49°52' W 125°01'9 9.2
2014-Jul-15 03:33N 49°58' W 125°11'1110.9
2014-Jul-15 02:34N 50°07' W 125°21'4513.9
2014-Jul-14 23:18N 50°30' W 126°22'1215.3
2014-Jul-14 22:31N 50°32' W 126°41'1615.2
2014-Jul-14 21:29N 50°42' W 126°59'1516.0
2014-Jul-14 20:34N 50°48' W 127°20'1515.4
2014-Jul-14 19:33N 50°56' W 127°41'1110.9
2014-Jul-14 18:33N 51°02' W 127°55'1311.5
2014-Jul-14 17:28N 51°09' W 128°12'1313.3
2014-Jul-14 16:32N 51°19' W 128°24'3014.9
2014-Jul-14 14:31N 51°47' W 128°42'  
Track history (hours):
 
Tides and Currents Weather Stations Pressure Air Temp Water Temp Dewpoint Dewpoint Depression Visibility Wind Speed Wind Dir Waves Ship Positions

Pacific Princess (Bermuda)

Last reported at 2014-Jul-24 07:20 UTC. Time now 2014-Jul-25 06:45 UTC.
Position N 54°19' W 131°04'.

Length 180.5 m; beam 25.6 m; draft 6 m.

Type: Passenger vessel. MMSI: 310504000.

Date/timePositionNaut miles runAvg speedWind from/ knotsBaromVisibWave heightAir tempDewpointWater temp
2014-Jul-24 07:20N 54°19' W 131°04'22712.5
2014-Jul-23 13:12N 51°03' W 127°56'913.6
2014-Jul-23 12:33N 50°58' W 127°45'1212.0
2014-Jul-23 11:33N 50°51' W 127°30'1413.1
2014-Jul-23 10:31N 50°45' W 127°10'1513.1
2014-Jul-23 09:21N 50°39' W 126°48'7312.4
2014-Jul-23 03:31N 49°60' W 125°12'1515.4
2014-Jul-23 02:33N 49°50' W 124°56'1717.5
2014-Jul-23 01:33N 49°38' W 124°36'1818.2
2014-Jul-23 00:34N 49°25' W 124°17'1919.4
2014-Jul-22 23:34N 49°22' W 123°47'1919.3
2014-Jul-22 22:33N 49°19' W 123°18'8 7.5
2014-Jul-22 21:33N 49°17' W 123°06'0 0.0
2014-Jul-22 20:33N 49°17' W 123°06'0 0.0
2014-Jul-22 19:33N 49°17' W 123°06'0 0.0
2014-Jul-22 18:31N 49°17' W 123°06'0 0.0
2014-Jul-22 17:31N 49°17' W 123°06'0 0.0
2014-Jul-22 16:32N 49°17' W 123°06'0 0.0
2014-Jul-22 15:31N 49°17' W 123°06'0 0.0
2014-Jul-22 14:32N 49°17' W 123°06'1 0.6
2014-Jul-22 13:34N 49°18' W 123°06'1111.1
2014-Jul-22 12:33N 49°18' W 123°23'1111.1
2014-Jul-22 11:33N 49°19' W 123°40'10 9.9
2014-Jul-22 10:33N 49°21' W 123°55'1010.2
2014-Jul-22 09:33N 49°24' W 124°10'1010.0
2014-Jul-22 08:33N 49°27' W 124°25'10 9.9
2014-Jul-22 07:33N 49°34' W 124°36'1010.3
2014-Jul-22 06:33N 49°42' W 124°47'1010.3
2014-Jul-22 05:33N 49°49' W 124°57'1110.5
2014-Jul-22 04:31N 49°57' W 125°09'1210.6
2014-Jul-22 03:23N 50°07' W 125°20'7112.2
2014-Jul-21 21:32N 50°42' W 126°58'1414.4
2014-Jul-21 20:33N 50°47' W 127°18'414.3
2014-Jul-21 20:18N 50°49' W 127°23'1114.2
2014-Jul-21 19:33N 50°54' W 127°38'1111.5
2014-Jul-21 18:33N 51°01' W 127°52'  
2014-Jul-16 12:27N 50°60' W 127°49'1112.1
2014-Jul-16 11:34N 50°53' W 127°36'1514.1
2014-Jul-16 10:31N 50°47' W 127°15'1414.2
2014-Jul-16 09:32N 50°41' W 126°54'6312.7
2014-Jul-16 04:33N 50°15' W 125°23'1813.7
2014-Jul-16 03:14N 49°59' W 125°12'1116.6
2014-Jul-16 02:33N 49°51' W 124°58'1818.4
2014-Jul-16 01:32N 49°38' W 124°39'1918.9
2014-Jul-16 00:33N 49°25' W 124°18'2019.7
2014-Jul-15 23:33N 49°23' W 123°48'1919.5
2014-Jul-15 22:33N 49°19' W 123°19'8 8.0
2014-Jul-15 21:33N 49°17' W 123°06'0 0.0
2014-Jul-15 20:33N 49°17' W 123°06'0 0.0
2014-Jul-15 19:33N 49°17' W 123°06'0 0.0
2014-Jul-15 18:33N 49°17' W 123°06'0 0.0
2014-Jul-15 17:33N 49°17' W 123°06'0 0.0
2014-Jul-15 16:33N 49°17' W 123°06'0 0.0
2014-Jul-15 15:33N 49°17' W 123°06'0 0.0
2014-Jul-15 14:33N 49°17' W 123°06'1 1.3
2014-Jul-15 13:33N 49°18' W 123°07'1010.4
2014-Jul-15 12:33N 49°19' W 123°23'10 9.9
2014-Jul-15 11:33N 49°20' W 123°39'10 9.9
2014-Jul-15 10:33N 49°21' W 123°54'9 9.2
2014-Jul-15 09:33N 49°23' W 124°07'10 9.4
2014-Jul-15 08:32N 49°27' W 124°21'9 9.5
2014-Jul-15 07:33N 49°32' W 124°33'10 9.2
2014-Jul-15 06:31N 49°39' W 124°43'8 8.6
2014-Jul-15 05:33N 49°45' W 124°51'9 9.0
2014-Jul-15 04:33N 49°52' W 125°01'9 9.2
2014-Jul-15 03:33N 49°58' W 125°11'1110.9
2014-Jul-15 02:34N 50°07' W 125°21'4513.9
2014-Jul-14 23:18N 50°30' W 126°22'1215.3
2014-Jul-14 22:31N 50°32' W 126°41'1615.2
2014-Jul-14 21:29N 50°42' W 126°59'1516.0
2014-Jul-14 20:34N 50°48' W 127°20'1515.4
2014-Jul-14 19:33N 50°56' W 127°41'1110.9
2014-Jul-14 18:33N 51°02' W 127°55'1311.5
2014-Jul-14 17:28N 51°09' W 128°12'1313.3
2014-Jul-14 16:32N 51°19' W 128°24'3014.9
2014-Jul-14 14:31N 51°47' W 128°42'  

Dump ship's entire track history